createdAt,value
2023-01-30T00:01:06.357Z,6.46
2023-01-30T00:03:34.238Z,6.46
2023-01-30T00:06:00.699Z,6.51
2023-01-30T00:08:27.207Z,6.37
2023-01-30T00:10:53.653Z,6.25
2023-01-30T00:13:20.151Z,6.24
2023-01-30T00:15:48.142Z,6.15
2023-01-30T00:18:14.612Z,6.15
2023-01-30T00:20:41.032Z,6.14
2023-01-30T00:23:07.420Z,6.11
2023-01-30T00:25:33.996Z,6.13
2023-01-30T00:28:01.511Z,6.14
2023-01-30T00:30:28.378Z,6.12
2023-01-30T00:32:56.550Z,6.12
2023-01-30T00:35:28.340Z,6.10
2023-01-30T00:37:58.664Z,6.13
2023-01-30T00:40:26.967Z,6.14
2023-01-30T00:46:03.965Z,5.96
2023-01-30T00:48:30.837Z,5.87
2023-01-30T00:50:57.414Z,5.86
2023-01-30T00:53:23.962Z,5.88
2023-01-30T00:55:54.777Z,5.90
2023-01-30T00:58:23.055Z,5.86
2023-01-30T01:00:50.967Z,5.84
2023-01-30T01:03:17.781Z,5.86
2023-01-30T01:05:44.544Z,5.91
2023-01-30T01:08:11.992Z,5.96
2023-01-30T01:10:38.871Z,5.93
2023-01-30T01:13:06.989Z,5.96
2023-01-30T01:15:34.294Z,5.95
2023-01-30T01:18:00.710Z,5.97
2023-01-30T01:20:27.283Z,5.99
2023-01-30T01:22:55.159Z,6.04
2023-01-30T01:25:22.791Z,6.07
2023-01-30T01:27:49.967Z,6.06
2023-01-30T01:30:17.130Z,6.08
2023-01-30T01:32:43.961Z,6.11
2023-01-30T01:35:10.495Z,6.11
2023-01-30T01:37:37.069Z,6.11
2023-01-30T01:40:23.687Z,6.08
2023-01-30T01:42:51.023Z,6.16
2023-01-30T01:45:23.088Z,6.11
2023-01-30T01:47:59.068Z,6.10
2023-01-30T01:50:31.376Z,6.13
2023-01-30T01:53:00.777Z,6.14
2023-01-30T01:55:28.062Z,6.15
2023-01-30T01:58:00.004Z,6.21
2023-01-30T02:00:26.927Z,6.21
2023-01-30T02:03:00.042Z,6.18
2023-01-30T02:05:34.928Z,6.20
2023-01-30T02:08:15.805Z,6.20
2023-01-30T02:11:00.592Z,6.18
2023-01-30T02:13:28.079Z,6.22
2023-01-30T02:15:58.585Z,6.23
2023-01-30T02:18:25.680Z,6.27
2023-01-30T02:21:06.242Z,6.36
2023-01-30T02:24:03.526Z,6.38
2023-01-30T02:26:52.481Z,6.50
2023-01-30T02:29:18.998Z,6.53
2023-01-30T02:32:06.865Z,6.56
2023-01-30T02:34:59.795Z,6.57
2023-01-30T02:37:49.430Z,6.63
2023-01-30T02:40:36.598Z,6.60
2023-01-30T02:43:12.031Z,6.52
2023-01-30T02:45:48.357Z,6.53
2023-01-30T02:48:22.979Z,6.52
2023-01-30T02:50:54.567Z,6.57
2023-01-30T02:53:21.494Z,6.61
2023-01-30T02:55:47.938Z,6.64
2023-01-30T02:58:16.569Z,6.66
2023-01-30T03:01:35.552Z,6.66
2023-01-30T03:04:31.776Z,6.64
2023-01-30T03:07:09.788Z,6.65
2023-01-30T03:09:51.284Z,6.63
2023-01-30T03:12:32.779Z,6.68
2023-01-30T03:15:05.420Z,6.66
2023-01-30T03:17:33.338Z,6.67
2023-01-30T03:20:00.143Z,6.66
2023-01-30T03:22:26.685Z,6.64
2023-01-30T03:24:54.527Z,6.55
2023-01-30T03:27:21.939Z,6.52
2023-01-30T03:29:48.384Z,6.53
2023-01-30T03:32:14.764Z,6.51
2023-01-30T03:34:41.826Z,6.53
2023-01-30T03:37:08.927Z,6.52
2023-01-30T03:39:35.498Z,6.49
2023-01-30T03:42:01.934Z,6.51
2023-01-30T03:44:28.319Z,6.42
2023-01-30T03:46:54.710Z,6.40
2023-01-30T03:49:21.555Z,6.35
2023-01-30T03:51:48.083Z,6.34
2023-01-30T03:54:14.507Z,6.32
2023-01-30T03:56:40.909Z,6.31
2023-01-30T03:59:07.289Z,6.32
2023-01-30T04:01:33.781Z,6.36
2023-01-30T04:04:00.250Z,6.32
2023-01-30T04:06:26.653Z,6.35
2023-01-30T04:08:55.902Z,6.34
2023-01-30T04:11:22.478Z,6.36
2023-01-30T04:13:48.869Z,6.31
2023-01-30T04:16:25.000Z,6.28
2023-01-30T04:18:51.668Z,6.18
2023-01-30T04:21:18.222Z,6.04
2023-01-30T04:23:44.911Z,6.01
2023-01-30T04:26:12.271Z,5.97
2023-01-30T04:28:38.815Z,5.93
2023-01-30T04:31:06.382Z,5.86
2023-01-30T04:33:36.036Z,5.77
2023-01-30T04:36:04.262Z,5.76
2023-01-30T04:38:32.394Z,5.79
2023-01-30T04:40:59.419Z,5.77
2023-01-30T04:43:27.593Z,5.76
2023-01-30T04:45:54.813Z,5.74
2023-01-30T04:48:23.511Z,5.66
2023-01-30T04:50:52.670Z,5.64
2023-01-30T04:53:20.546Z,5.76
2023-01-30T04:55:47.767Z,5.63
2023-01-30T04:58:14.566Z,5.52
2023-01-30T05:00:41.202Z,5.55
2023-01-30T05:03:07.767Z,5.60
2023-01-30T05:05:34.438Z,5.51
2023-01-30T05:08:01.585Z,5.46
2023-01-30T05:10:28.012Z,5.44
2023-01-30T05:12:54.463Z,5.52
2023-01-30T05:15:21.272Z,5.41
2023-01-30T05:17:47.757Z,5.40
2023-01-30T05:20:14.572Z,5.41
2023-01-30T05:22:41.086Z,5.41
2023-01-30T05:25:08.031Z,5.46
2023-01-30T05:27:34.484Z,5.44
2023-01-30T05:30:01.025Z,5.46
2023-01-30T05:32:30.374Z,5.45
2023-01-30T05:34:56.848Z,5.54
2023-01-30T05:37:24.432Z,5.53
2023-01-30T05:39:50.844Z,5.58
2023-01-30T05:42:17.351Z,5.70
2023-01-30T05:44:43.825Z,5.84
2023-01-30T05:47:10.326Z,5.74
2023-01-30T05:49:36.780Z,5.75
2023-01-30T05:52:03.246Z,5.74
2023-01-30T05:54:29.711Z,5.73
2023-01-30T05:56:56.205Z,5.78
2023-01-30T05:59:22.824Z,5.78
2023-01-30T06:01:49.268Z,5.84
2023-01-30T06:04:15.717Z,5.87
2023-01-30T06:06:42.297Z,5.83
2023-01-30T06:09:10.567Z,5.72
2023-01-30T06:11:36.997Z,5.70
2023-01-30T06:14:03.418Z,5.60
2023-01-30T06:16:29.925Z,5.55
2023-01-30T06:18:56.453Z,5.52
2023-01-30T06:21:22.948Z,5.45
2023-01-30T06:23:49.499Z,5.38
2023-01-30T06:26:15.934Z,5.32
2023-01-30T06:28:42.722Z,5.39
2023-01-30T06:31:09.612Z,5.41
2023-01-30T06:33:36.857Z,5.40
2023-01-30T06:36:03.712Z,5.43
2023-01-30T06:38:30.186Z,5.45
2023-01-30T06:40:56.558Z,5.38
2023-01-30T06:43:22.992Z,5.36
2023-01-30T06:45:49.464Z,5.29
2023-01-30T06:48:15.937Z,5.31
2023-01-30T06:50:42.410Z,5.35
2023-01-30T06:53:09.110Z,5.38
2023-01-30T06:55:36.356Z,5.38
2023-01-30T06:58:03.078Z,5.38
2023-01-30T07:00:30.500Z,5.34
2023-01-30T07:02:57.072Z,5.37
2023-01-30T07:05:23.556Z,5.49
2023-01-30T07:07:50.045Z,5.53
2023-01-30T07:10:16.810Z,5.48
2023-01-30T07:12:44.699Z,5.35
2023-01-30T07:15:11.351Z,5.35
2023-01-30T07:17:40.379Z,5.52
2023-01-30T07:20:07.617Z,5.48
2023-01-30T07:22:34.200Z,5.51
2023-01-30T07:25:00.634Z,5.43
2023-01-30T07:27:27.149Z,5.40
2023-01-30T07:29:53.551Z,5.37
2023-01-30T07:32:20.160Z,5.48
2023-01-30T07:34:47.431Z,5.50
2023-01-30T07:37:14.945Z,5.54
2023-01-30T07:39:41.675Z,5.58
2023-01-30T07:42:08.276Z,5.63
2023-01-30T07:44:34.817Z,5.60
2023-01-30T07:47:01.397Z,5.61
2023-01-30T07:49:28.072Z,5.67
2023-01-30T07:51:54.533Z,5.72
2023-01-30T07:54:20.981Z,5.76
2023-01-30T07:56:47.392Z,5.80
2023-01-30T07:59:13.955Z,5.82
2023-01-30T08:01:40.429Z,5.82
2023-01-30T08:04:06.891Z,5.82
2023-01-30T08:06:38.871Z,5.83
2023-01-30T08:09:06.994Z,5.81
2023-01-30T08:11:34.303Z,5.92
2023-01-30T08:14:00.862Z,5.94
2023-01-30T08:16:27.419Z,5.93
2023-01-30T08:18:53.908Z,5.94
2023-01-30T08:21:20.521Z,5.95
2023-01-30T08:23:47.057Z,6.00
2023-01-30T08:26:13.666Z,5.92
2023-01-30T08:28:40.803Z,5.87
2023-01-30T08:31:11.703Z,5.84
2023-01-30T08:33:38.248Z,5.81
2023-01-30T08:36:05.142Z,5.86
2023-01-30T08:38:31.725Z,5.80
2023-01-30T08:40:59.392Z,5.85
2023-01-30T08:43:25.813Z,5.83
2023-01-30T08:45:56.258Z,5.87
2023-01-30T08:48:23.432Z,5.95
2023-01-30T08:50:54.462Z,6.06
2023-01-30T08:53:21.202Z,6.03
2023-01-30T08:55:51.166Z,6.05
2023-01-30T08:58:17.651Z,6.06
2023-01-30T09:00:45.327Z,6.00
2023-01-30T09:03:13.821Z,6.07
2023-01-30T09:05:40.584Z,6.16
2023-01-30T09:08:07.076Z,6.15
2023-01-30T09:10:33.528Z,6.22
2023-01-30T09:12:59.981Z,6.23
2023-01-30T09:15:26.819Z,6.24
2023-01-30T09:17:53.309Z,6.24
2023-01-30T09:20:20.742Z,6.29
2023-01-30T09:22:47.425Z,6.32
2023-01-30T09:25:13.896Z,6.26
2023-01-30T09:27:44.357Z,6.28
2023-01-30T09:30:11.723Z,6.29
2023-01-30T09:32:38.221Z,6.15
2023-01-30T09:35:05.093Z,6.10
2023-01-30T09:37:31.567Z,6.21
2023-01-30T09:39:57.933Z,6.51
2023-01-30T09:42:45.782Z,6.70
2023-01-30T09:45:35.094Z,6.97
2023-01-30T09:48:17.813Z,6.79
2023-01-30T09:51:19.247Z,7.07
2023-01-30T09:54:14.000Z,6.88
2023-01-30T09:56:40.871Z,6.87
2023-01-30T09:59:19.570Z,6.89
2023-01-30T10:02:12.950Z,7.15
2023-01-30T10:05:00.627Z,7.14
2023-01-30T10:07:49.681Z,7.24
2023-01-30T10:10:35.255Z,7.49
2023-01-30T10:13:29.127Z,7.38
2023-01-30T10:16:07.903Z,6.97
2023-01-30T10:19:09.739Z,7.03
2023-01-30T10:21:54.371Z,7.25
2023-01-30T10:24:28.744Z,7.20
2023-01-30T10:26:56.808Z,7.42
2023-01-30T10:29:57.044Z,7.34
2023-01-30T10:32:33.853Z,7.31
2023-01-30T10:35:06.368Z,7.45
2023-01-30T10:37:40.505Z,7.41
2023-01-30T10:40:20.777Z,7.52
2023-01-30T10:43:17.109Z,7.53
2023-01-30T10:46:11.676Z,7.52
2023-01-30T10:49:06.349Z,7.65
2023-01-30T10:52:02.116Z,7.68
2023-01-30T10:54:31.603Z,7.84
2023-01-30T10:57:13.856Z,7.98
2023-01-30T10:59:45.263Z,7.82
2023-01-30T11:02:36.709Z,7.89
2023-01-30T11:05:14.186Z,7.93
2023-01-30T11:07:43.797Z,7.91
2023-01-30T11:10:25.026Z,7.70
2023-01-30T11:13:18.097Z,7.53
2023-01-30T11:15:48.158Z,7.54
2023-01-30T11:21:07.734Z,7.30
2023-01-30T11:23:39.490Z,7.41
2023-01-30T11:26:11.546Z,7.41
2023-01-30T11:28:43.908Z,7.54
2023-01-30T11:31:31.579Z,7.48
2023-01-30T11:34:14.770Z,7.39
2023-01-30T11:36:42.018Z,7.43
2023-01-30T11:39:15.791Z,7.31
2023-01-30T11:41:58.696Z,7.31
2023-01-30T11:44:36.410Z,7.18
2023-01-30T11:47:15.230Z,7.16
2023-01-30T11:50:05.056Z,7.26
2023-01-30T11:52:37.299Z,7.42
2023-01-30T11:55:10.968Z,7.54
2023-01-30T11:57:43.144Z,7.72
2023-01-30T12:00:20.260Z,7.79
2023-01-30T12:02:48.326Z,7.78
2023-01-30T12:05:34.495Z,7.66
2023-01-30T12:08:31.269Z,7.77
2023-01-30T12:11:25.682Z,7.71
2023-01-30T12:13:55.124Z,7.84
2023-01-30T12:16:28.052Z,7.94
2023-01-30T12:19:12.984Z,7.97
2023-01-30T12:21:58.872Z,7.99
2023-01-30T12:24:36.131Z,7.96
2023-01-30T12:27:48.531Z,8.28
2023-01-30T12:30:29.518Z,8.57
2023-01-30T12:35:47.125Z,8.59
2023-01-30T12:38:31.737Z,8.57
2023-01-30T12:41:29.278Z,8.50
2023-01-30T12:44:04.432Z,8.45
2023-01-30T12:46:30.881Z,8.25
2023-01-30T12:49:21.781Z,8.69
2023-01-30T12:52:25.231Z,8.96
2023-01-30T12:55:02.132Z,8.78
2023-01-30T12:57:48.726Z,9.05
2023-01-30T13:00:24.110Z,9.28
2023-01-30T13:03:19.269Z,9.47
2023-01-30T13:05:57.963Z,9.44
2023-01-30T13:08:34.552Z,9.46
2023-01-30T13:11:06.486Z,9.61
2023-01-30T13:14:02.203Z,9.47
2023-01-30T13:16:36.337Z,9.27
2023-01-30T13:19:40.767Z,9.40
2023-01-30T13:22:22.816Z,9.46
2023-01-30T13:25:10.830Z,9.37
2023-01-30T13:27:40.319Z,8.48
2023-01-30T13:30:14.545Z,7.99
2023-01-30T13:32:47.199Z,7.84
2023-01-30T13:35:25.504Z,7.78
2023-01-30T13:37:52.755Z,7.72
2023-01-30T13:40:23.783Z,7.80
2023-01-30T13:43:07.108Z,8.08
2023-01-30T13:45:36.695Z,8.19
2023-01-30T13:48:34.276Z,8.24
2023-01-30T13:51:32.674Z,7.90
2023-01-30T13:54:19.909Z,7.90
2023-01-30T13:57:01.111Z,7.76
2023-01-30T13:59:46.982Z,7.71
2023-01-30T14:02:19.543Z,7.55
2023-01-30T14:04:54.830Z,7.41
2023-01-30T14:07:25.760Z,7.38
2023-01-30T14:10:17.277Z,7.35
2023-01-30T14:12:49.666Z,7.28
2023-01-30T14:15:19.727Z,7.24
2023-01-30T14:17:59.325Z,7.15
2023-01-30T14:20:31.329Z,7.19
2023-01-30T14:23:00.386Z,7.21
2023-01-30T14:25:29.767Z,7.11
2023-01-30T14:28:16.558Z,7.16
2023-01-30T14:30:54.668Z,7.11
2023-01-30T14:33:21.082Z,7.08
2023-01-30T14:36:00.606Z,7.09
2023-01-30T14:38:30.782Z,7.03
2023-01-30T14:40:59.989Z,6.97
2023-01-30T14:43:41.587Z,6.84
2023-01-30T14:46:20.044Z,6.76
2023-01-30T14:48:56.829Z,6.70
2023-01-30T14:51:25.083Z,6.69
2023-01-30T14:54:13.930Z,6.71
2023-01-30T14:56:46.661Z,6.67
2023-01-30T14:59:16.028Z,6.52
2023-01-30T15:02:00.704Z,6.38
2023-01-30T15:04:32.257Z,6.28
2023-01-30T15:07:03.018Z,6.28
2023-01-30T15:09:31.861Z,6.28
2023-01-30T15:12:37.400Z,6.22
2023-01-30T15:15:09.985Z,6.20
2023-01-30T15:18:08.320Z,6.21
2023-01-30T15:21:08.648Z,6.29
2023-01-30T15:23:43.421Z,6.28
2023-01-30T15:26:38.827Z,6.27
2023-01-30T15:29:24.223Z,6.16
2023-01-30T15:31:55.282Z,6.12
2023-01-30T15:34:22.328Z,6.09
2023-01-30T15:36:49.262Z,6.02
2023-01-30T15:39:20.527Z,5.99
2023-01-30T15:41:47.881Z,5.93
2023-01-30T15:44:14.186Z,5.96
2023-01-30T15:46:54.320Z,5.85
2023-01-30T15:49:39.468Z,5.76
2023-01-30T15:52:11.857Z,5.72
2023-01-30T15:54:38.282Z,5.78
2023-01-30T15:57:04.921Z,5.69
2023-01-30T15:59:38.244Z,5.67
2023-01-30T16:02:15.044Z,5.65
2023-01-30T16:04:41.535Z,5.54
2023-01-30T16:07:15.688Z,5.48
2023-01-30T16:09:45.548Z,5.62
2023-01-30T16:12:26.674Z,5.64
2023-01-30T16:15:05.719Z,5.50
2023-01-30T16:17:39.091Z,5.46
2023-01-30T16:20:07.679Z,5.50
2023-01-30T16:22:34.963Z,5.48
2023-01-30T16:25:04.130Z,5.47
2023-01-30T16:27:34.160Z,5.50
2023-01-30T16:30:07.642Z,5.53
2023-01-30T16:32:34.559Z,5.54
2023-01-30T16:35:27.446Z,5.51
2023-01-30T16:37:56.918Z,5.45
2023-01-30T16:40:25.275Z,5.48
2023-01-30T16:42:57.089Z,5.37
2023-01-30T16:45:35.496Z,5.32
2023-01-30T16:48:30.816Z,5.30
2023-01-30T16:51:00.393Z,5.32
2023-01-30T16:53:29.440Z,5.31
2023-01-30T16:55:59.047Z,5.25
2023-01-30T16:58:32.379Z,5.27
2023-01-30T17:01:01.557Z,5.22
2023-01-30T17:03:36.824Z,5.22
2023-01-30T17:06:12.505Z,5.12
2023-01-30T17:08:48.043Z,5.08
2023-01-30T17:11:41.767Z,5.13
2023-01-30T17:14:14.102Z,5.18
2023-01-30T17:16:42.921Z,5.19
2023-01-30T17:19:09.598Z,5.19
2023-01-30T17:21:48.429Z,5.29
2023-01-30T17:24:18.381Z,5.36
2023-01-30T17:26:49.090Z,5.32
2023-01-30T17:29:24.052Z,5.14
2023-01-30T17:32:01.156Z,5.03
2023-01-30T17:34:28.899Z,4.94
2023-01-30T17:36:55.978Z,4.82
2023-01-30T17:39:25.669Z,4.77
2023-01-30T17:41:52.362Z,4.73
2023-01-30T17:44:18.846Z,4.71
2023-01-30T17:46:49.360Z,4.71
2023-01-30T17:49:23.545Z,4.67
2023-01-30T17:51:51.498Z,4.61
2023-01-30T17:54:20.005Z,4.61
2023-01-30T17:56:51.649Z,4.69
2023-01-30T17:59:19.812Z,4.70
2023-01-30T18:01:48.689Z,4.75
2023-01-30T18:04:15.893Z,4.86
2023-01-30T18:06:45.511Z,4.91
2023-01-30T18:09:14.956Z,4.95
2023-01-30T18:11:41.478Z,5.10
2023-01-30T18:14:07.946Z,5.18
2023-01-30T18:16:34.351Z,5.14
2023-01-30T18:19:05.311Z,5.23
2023-01-30T18:21:34.012Z,5.34
2023-01-30T18:24:00.722Z,5.38
2023-01-30T18:26:27.385Z,5.40
2023-01-30T18:28:54.293Z,5.47
2023-01-30T18:31:23.740Z,5.42
2023-01-30T18:33:51.178Z,5.11
2023-01-30T18:36:19.317Z,4.82
2023-01-30T18:38:46.532Z,4.58
2023-01-30T18:41:15.273Z,4.38
2023-01-30T18:43:42.639Z,4.30
2023-01-30T18:46:14.538Z,4.31
2023-01-30T18:48:41.989Z,4.18
2023-01-30T18:51:13.053Z,4.18
2023-01-30T18:53:40.416Z,4.23
2023-01-30T18:56:08.687Z,4.37
2023-01-30T18:58:35.784Z,4.43
2023-01-30T19:01:14.124Z,4.52
2023-01-30T19:03:41.494Z,4.58
2023-01-30T19:06:11.670Z,4.53
2023-01-30T19:08:38.355Z,4.56
2023-01-30T19:11:26.058Z,4.53
2023-01-30T19:13:53.720Z,4.60
2023-01-30T19:16:21.362Z,4.61
2023-01-30T19:18:48.041Z,4.55
2023-01-30T19:21:14.456Z,4.43
2023-01-30T19:23:40.833Z,4.42
2023-01-30T19:26:07.572Z,4.39
2023-01-30T19:28:33.967Z,4.37
2023-01-30T19:31:05.877Z,4.34
2023-01-30T19:33:33.585Z,4.31
2023-01-30T19:36:15.808Z,4.26
2023-01-30T19:38:43.291Z,4.24
2023-01-30T19:41:18.776Z,4.23
2023-01-30T19:43:45.237Z,4.23
2023-01-30T19:46:12.109Z,4.31
2023-01-30T19:48:40.304Z,4.26
2023-01-30T19:51:27.243Z,4.19
2023-01-30T19:53:56.029Z,4.20
2023-01-30T19:56:25.285Z,4.31
2023-01-30T19:58:54.933Z,4.33
2023-01-30T20:01:23.402Z,4.35
2023-01-30T20:03:50.154Z,4.28
2023-01-30T20:06:22.671Z,4.25
2023-01-30T20:08:54.061Z,4.35
2023-01-30T20:11:21.900Z,4.37
2023-01-30T20:13:49.507Z,4.41
2023-01-30T20:16:21.310Z,4.40
2023-01-30T20:18:53.537Z,4.27
2023-01-30T20:21:21.636Z,4.16
2023-01-30T20:23:48.941Z,4.14
2023-01-30T20:26:17.928Z,4.18
2023-01-30T20:28:44.494Z,4.13
2023-01-30T20:31:16.382Z,4.14
2023-01-30T20:33:43.010Z,4.30
2023-01-30T20:36:12.008Z,4.34
2023-01-30T20:38:40.711Z,4.26
2023-01-30T20:41:12.626Z,4.21
2023-01-30T20:43:40.972Z,4.26
2023-01-30T20:46:29.124Z,4.29
2023-01-30T20:48:57.836Z,4.24
2023-01-30T20:51:26.779Z,4.28
2023-01-30T20:53:55.646Z,4.26
2023-01-30T20:56:23.346Z,4.26
2023-01-30T20:58:50.278Z,4.36
2023-01-30T21:01:23.258Z,4.41
2023-01-30T21:03:52.246Z,4.39
2023-01-30T21:06:41.939Z,4.30
2023-01-30T21:09:12.403Z,4.26
2023-01-30T21:11:39.568Z,4.25
2023-01-30T21:14:06.354Z,4.29
2023-01-30T21:16:34.825Z,4.25
2023-01-30T21:19:04.511Z,4.21
2023-01-30T21:21:38.166Z,4.16
2023-01-30T21:24:08.397Z,4.24
2023-01-30T21:26:37.191Z,4.25
2023-01-30T21:29:06.318Z,4.30
2023-01-30T21:31:34.728Z,4.38
2023-01-30T21:34:01.685Z,4.36
2023-01-30T21:36:29.107Z,4.32
2023-01-30T21:39:14.158Z,4.39
2023-01-30T21:41:51.831Z,4.36
2023-01-30T21:44:20.086Z,4.27
2023-01-30T21:46:48.198Z,4.29
2023-01-30T21:49:18.934Z,4.34
2023-01-30T21:51:48.086Z,4.36
2023-01-30T21:54:15.843Z,4.35
2023-01-30T21:56:42.679Z,4.41
2023-01-30T21:59:09.589Z,4.44
2023-01-30T22:01:37.808Z,4.34
2023-01-30T22:04:06.186Z,4.34
2023-01-30T22:06:33.388Z,4.33
2023-01-30T22:09:01.505Z,4.25
2023-01-30T22:11:29.440Z,4.18
2023-01-30T22:13:57.264Z,4.08
2023-01-30T22:16:27.071Z,3.96
2023-01-30T22:18:56.140Z,3.94
2023-01-30T22:21:25.069Z,3.89
2023-01-30T22:23:53.132Z,3.88
2023-01-30T22:26:21.288Z,3.76
2023-01-30T22:28:48.055Z,3.66
2023-01-30T22:31:17.892Z,3.70
2023-01-30T22:33:52.087Z,3.66
2023-01-30T22:36:19.344Z,3.66
2023-01-30T22:38:47.652Z,3.55
2023-01-30T22:41:17.172Z,3.51
2023-01-30T22:43:55.396Z,3.47
2023-01-30T22:46:25.109Z,3.48
2023-01-30T22:48:51.936Z,3.46
2023-01-30T22:51:23.523Z,3.41
2023-01-30T22:53:55.243Z,3.28
2023-01-30T22:56:25.151Z,3.17
2023-01-30T22:58:51.801Z,3.08
2023-01-30T23:01:29.843Z,3.05
2023-01-30T23:03:57.887Z,3.08
2023-01-30T23:06:25.300Z,3.11
2023-01-30T23:08:54.021Z,3.12
2023-01-30T23:11:27.583Z,3.07
2023-01-30T23:13:56.364Z,3.06
2023-01-30T23:16:26.116Z,3.11
2023-01-30T23:18:56.389Z,3.15
2023-01-30T23:21:28.477Z,3.25
2023-01-30T23:24:00.975Z,3.30
2023-01-30T23:26:30.553Z,3.37
2023-01-30T23:28:57.171Z,3.46
2023-01-30T23:31:25.773Z,3.51
2023-01-30T23:33:54.702Z,3.51
2023-01-30T23:36:21.853Z,3.53
2023-01-30T23:38:50.067Z,3.53
2023-01-30T23:41:19.337Z,3.64
2023-01-30T23:43:46.987Z,3.70
2023-01-30T23:46:19.943Z,3.67
2023-01-30T23:48:48.397Z,3.65
2023-01-30T23:51:16.872Z,3.67
2023-01-30T23:53:43.989Z,3.69
2023-01-30T23:56:11.583Z,3.81
2023-01-30T23:58:38.753Z,3.79
